createdAt,value
2022-12-18T00:01:22.858Z,-3.14
2022-12-18T00:03:49.914Z,-3.15
2022-12-18T00:06:20.128Z,-3.15
2022-12-18T00:08:47.531Z,-3.15
2022-12-18T00:11:21.856Z,-3.16
2022-12-18T00:13:48.870Z,-3.15
2022-12-18T00:16:17.971Z,-3.16
2022-12-18T00:18:51.580Z,-3.17
2022-12-18T00:21:19.401Z,-3.18
2022-12-18T00:23:47.601Z,-3.19
2022-12-18T00:26:17.474Z,-3.19
2022-12-18T00:28:44.781Z,-3.19
2022-12-18T00:31:15.268Z,-3.21
2022-12-18T00:33:44.284Z,-3.22
2022-12-18T00:36:16.173Z,-3.22
2022-12-18T00:38:42.956Z,-3.22
2022-12-18T00:41:13.175Z,-3.22
2022-12-18T00:43:41.194Z,-3.24
2022-12-18T00:46:08.057Z,-3.25
2022-12-18T00:48:41.187Z,-3.24
2022-12-18T00:51:09.825Z,-3.25
2022-12-18T00:53:36.539Z,-3.24
2022-12-18T00:56:05.116Z,-3.23
2022-12-18T00:58:31.880Z,-3.25
2022-12-18T01:00:58.389Z,-3.24
2022-12-18T01:03:29.376Z,-3.24
2022-12-18T01:05:55.855Z,-3.23
2022-12-18T01:08:22.316Z,-3.23
2022-12-18T01:10:49.037Z,-3.24
2022-12-18T01:13:17.804Z,-3.25
2022-12-18T01:15:51.248Z,-3.26
2022-12-18T01:18:17.903Z,-3.25
2022-12-18T01:20:44.458Z,-3.26
2022-12-18T01:23:12.725Z,-3.25
2022-12-18T01:25:39.438Z,-3.25
2022-12-18T01:28:06.094Z,-3.26
2022-12-18T01:30:32.816Z,-3.25
2022-12-18T01:32:59.301Z,-3.25
2022-12-18T01:35:25.846Z,-3.24
2022-12-18T01:38:00.045Z,-3.24
2022-12-18T01:40:26.551Z,-3.23
2022-12-18T01:42:54.264Z,-3.23
2022-12-18T01:45:34.557Z,-3.23
2022-12-18T01:48:07.402Z,-3.22
2022-12-18T01:50:40.715Z,-3.23
2022-12-18T01:53:18.301Z,-3.21
2022-12-18T01:55:49.210Z,-3.20
2022-12-18T01:58:18.604Z,-3.20
2022-12-18T02:00:49.053Z,-3.20
2022-12-18T02:03:15.844Z,-3.20
2022-12-18T02:05:53.062Z,-3.20
2022-12-18T02:08:40.302Z,-3.17
2022-12-18T02:11:22.745Z,-3.17
2022-12-18T02:14:03.204Z,-3.16
2022-12-18T02:16:33.030Z,-3.16
2022-12-18T02:19:04.441Z,-3.15
2022-12-18T02:21:48.934Z,-3.16
2022-12-18T02:24:36.262Z,-3.16
2022-12-18T02:27:09.440Z,-3.17
2022-12-18T02:29:57.674Z,-3.14
2022-12-18T02:32:48.261Z,-3.15
2022-12-18T02:35:22.472Z,-3.13
2022-12-18T02:37:49.485Z,-3.13
2022-12-18T02:40:18.134Z,-3.15
2022-12-18T02:42:44.869Z,-3.14
2022-12-18T02:45:11.412Z,-3.14
2022-12-18T02:47:41.812Z,-3.13
2022-12-18T02:50:15.319Z,-3.15
2022-12-18T02:52:51.044Z,-3.16
2022-12-18T02:55:36.757Z,-3.18
2022-12-18T02:58:43.421Z,-3.16
2022-12-18T03:01:24.507Z,-3.17
2022-12-18T03:04:01.430Z,-3.17
2022-12-18T03:06:30.357Z,-3.18
2022-12-18T03:09:02.074Z,-3.19
2022-12-18T03:11:52.497Z,-3.20
2022-12-18T03:14:22.319Z,-3.20
2022-12-18T03:16:53.636Z,-3.20
2022-12-18T03:19:25.141Z,-3.20
2022-12-18T03:21:58.277Z,-3.21
2022-12-18T03:24:27.508Z,-3.21
2022-12-18T03:27:02.289Z,-3.23
2022-12-18T03:29:35.506Z,-3.24
2022-12-18T03:32:36.272Z,-3.25
2022-12-18T03:35:06.504Z,-3.25
2022-12-18T03:37:33.839Z,-3.25
2022-12-18T03:40:00.909Z,-3.24
2022-12-18T03:42:38.516Z,-3.23
2022-12-18T03:45:18.609Z,-3.24
2022-12-18T03:48:19.061Z,-3.24
2022-12-18T03:50:45.617Z,-3.24
2022-12-18T03:53:35.036Z,-3.24
2022-12-18T03:56:04.741Z,-3.26
2022-12-18T03:58:35.256Z,-3.29
2022-12-18T04:01:05.842Z,-3.28
2022-12-18T04:03:40.101Z,-3.29
2022-12-18T04:06:07.574Z,-3.32
2022-12-18T04:08:36.026Z,-3.30
2022-12-18T04:11:05.367Z,-3.33
2022-12-18T04:13:40.121Z,-3.33
2022-12-18T04:16:13.976Z,-3.33
2022-12-18T04:18:40.540Z,-3.32
2022-12-18T04:21:07.099Z,-3.35
2022-12-18T04:23:33.749Z,-3.35
2022-12-18T04:26:00.211Z,-3.34
2022-12-18T04:28:26.717Z,-3.33
2022-12-18T04:30:55.534Z,-3.34
2022-12-18T04:33:22.041Z,-3.37
2022-12-18T04:35:48.568Z,-3.38
2022-12-18T04:38:15.229Z,-3.36
2022-12-18T04:40:41.899Z,-3.38
2022-12-18T04:43:08.906Z,-3.38
2022-12-18T04:45:35.741Z,-3.38
2022-12-18T04:48:03.777Z,-3.35
2022-12-18T04:50:30.968Z,-3.36
2022-12-18T04:52:58.277Z,-3.35
2022-12-18T04:55:26.540Z,-3.35
2022-12-18T04:57:53.368Z,-3.34
2022-12-18T05:00:29.005Z,-3.34
2022-12-18T05:03:02.789Z,-3.33
2022-12-18T05:05:31.740Z,-3.32
2022-12-18T05:07:58.535Z,-3.33
2022-12-18T05:10:25.016Z,-3.29
2022-12-18T05:13:02.265Z,-3.30
2022-12-18T05:15:32.735Z,-3.28
2022-12-18T05:18:01.957Z,-3.30
2022-12-18T05:20:34.162Z,-3.32
2022-12-18T05:23:00.680Z,-3.33
2022-12-18T05:25:27.608Z,-3.30
2022-12-18T05:27:56.360Z,-3.32
2022-12-18T05:30:23.668Z,-3.32
2022-12-18T05:32:50.151Z,-3.32
2022-12-18T05:35:22.978Z,-3.29
2022-12-18T05:37:49.444Z,-3.30
2022-12-18T05:40:15.945Z,-3.32
2022-12-18T05:42:48.944Z,-3.29
2022-12-18T05:45:15.460Z,-3.25
2022-12-18T05:47:42.016Z,-3.26
2022-12-18T05:50:09.008Z,-3.25
2022-12-18T05:52:37.761Z,-3.25
2022-12-18T05:55:05.423Z,-3.28
2022-12-18T05:57:33.649Z,-3.29
2022-12-18T06:00:00.295Z,-3.29
2022-12-18T06:02:26.872Z,-3.28
2022-12-18T06:04:55.165Z,-3.27
2022-12-18T06:07:21.632Z,-3.29
2022-12-18T06:09:48.088Z,-3.29
2022-12-18T06:12:16.348Z,-3.28
2022-12-18T06:14:42.906Z,-3.26
2022-12-18T06:17:09.473Z,-3.25
2022-12-18T06:19:37.838Z,-3.29
2022-12-18T06:22:04.569Z,-3.31
2022-12-18T06:24:31.201Z,-3.32
2022-12-18T06:27:04.264Z,-3.31
2022-12-18T06:29:30.737Z,-3.30
2022-12-18T06:31:57.242Z,-3.29
2022-12-18T06:34:23.992Z,-3.29
2022-12-18T06:36:50.496Z,-3.32
2022-12-18T06:39:20.645Z,-3.29
2022-12-18T06:41:47.225Z,-3.30
2022-12-18T06:44:13.721Z,-3.28
2022-12-18T06:46:40.276Z,-3.29
2022-12-18T06:49:12.313Z,-3.29
2022-12-18T06:51:42.588Z,-3.32
2022-12-18T06:54:09.497Z,-3.29
2022-12-18T06:56:37.822Z,-3.31
2022-12-18T06:59:04.390Z,-3.34
2022-12-18T07:01:30.956Z,-3.34
2022-12-18T07:04:00.344Z,-3.34
2022-12-18T07:06:27.170Z,-3.28
2022-12-18T07:08:55.191Z,-3.28
2022-12-18T07:11:22.961Z,-3.29
2022-12-18T07:13:49.489Z,-3.26
2022-12-18T07:16:24.250Z,-3.26
2022-12-18T07:18:53.732Z,-3.25
2022-12-18T07:21:25.535Z,-3.23
2022-12-18T07:23:52.517Z,-3.23
2022-12-18T07:26:24.411Z,-3.22
2022-12-18T07:28:51.793Z,-3.20
2022-12-18T07:31:21.955Z,-3.15
2022-12-18T07:33:49.704Z,-3.16
2022-12-18T07:36:16.465Z,-3.15
2022-12-18T07:38:43.241Z,-3.10
2022-12-18T07:41:12.520Z,-3.07
2022-12-18T07:43:40.251Z,-3.06
2022-12-18T07:46:10.001Z,-3.05
2022-12-18T07:48:49.412Z,-3.05
2022-12-18T07:51:18.119Z,-3.03
2022-12-18T07:53:45.379Z,-3.01
2022-12-18T07:56:27.029Z,-3.00
2022-12-18T07:58:55.367Z,-2.99
2022-12-18T08:01:22.176Z,-2.99
2022-12-18T08:03:48.796Z,-2.96
2022-12-18T08:06:17.448Z,-2.92
2022-12-18T08:08:44.107Z,-2.89
2022-12-18T08:11:10.919Z,-2.86
2022-12-18T08:13:37.669Z,-2.83
2022-12-18T08:16:07.475Z,-2.83
2022-12-18T08:18:36.082Z,-2.82
2022-12-18T08:21:14.454Z,-2.77
2022-12-18T08:23:46.139Z,-2.74
2022-12-18T08:26:13.829Z,-2.75
2022-12-18T08:28:41.230Z,-2.76
2022-12-18T08:31:11.673Z,-2.74
2022-12-18T08:33:39.466Z,-2.71
2022-12-18T08:36:08.854Z,-2.69
2022-12-18T08:38:35.555Z,-2.68
2022-12-18T08:41:03.519Z,-2.66
2022-12-18T08:43:51.377Z,-2.62
2022-12-18T08:46:22.524Z,-2.57
2022-12-18T08:48:51.142Z,-2.56
2022-12-18T08:51:20.378Z,-2.57
2022-12-18T08:53:47.315Z,-2.54
2022-12-18T08:56:15.309Z,-2.52
2022-12-18T08:58:42.597Z,-2.53
2022-12-18T09:01:12.975Z,-2.48
2022-12-18T09:03:40.330Z,-2.45
2022-12-18T09:06:07.916Z,-2.42
2022-12-18T09:08:34.819Z,-2.38
2022-12-18T09:11:01.401Z,-2.36
2022-12-18T09:13:33.347Z,-2.30
2022-12-18T09:15:59.904Z,-2.26
2022-12-18T09:18:26.435Z,-2.20
2022-12-18T09:20:54.024Z,-2.18
2022-12-18T09:23:26.945Z,-2.13
2022-12-18T09:26:02.221Z,-2.06
2022-12-18T09:28:28.799Z,-1.95
2022-12-18T09:30:55.522Z,-1.83
2022-12-18T09:33:23.807Z,-1.83
2022-12-18T09:35:54.860Z,-1.54
2022-12-18T09:38:21.456Z,-1.33
2022-12-18T09:40:55.742Z,-1.41
2022-12-18T09:43:33.553Z,-1.12
2022-12-18T09:46:05.956Z,-1.10
2022-12-18T09:48:37.549Z,-0.56
2022-12-18T09:51:16.165Z,-0.42
2022-12-18T09:53:47.990Z,0.06
2022-12-18T09:56:19.739Z,0.17
2022-12-18T09:59:01.114Z,0.54
2022-12-18T10:01:38.894Z,0.61
2022-12-18T10:04:10.529Z,0.99
2022-12-18T10:06:53.813Z,1.10
2022-12-18T10:09:29.474Z,0.96
2022-12-18T10:12:12.432Z,1.41
2022-12-18T10:14:47.565Z,1.31
2022-12-18T10:18:05.378Z,1.37
2022-12-18T10:20:49.742Z,1.38
2022-12-18T10:23:46.519Z,1.10
2022-12-18T10:26:14.782Z,0.90
2022-12-18T10:28:43.243Z,0.89
2022-12-18T10:31:30.196Z,0.75
2022-12-18T10:33:59.181Z,0.57
2022-12-18T10:36:26.119Z,0.61
2022-12-18T10:38:57.694Z,0.47
2022-12-18T10:41:29.270Z,0.58
2022-12-18T10:44:25.766Z,0.31
2022-12-18T10:47:06.136Z,0.84
2022-12-18T10:49:38.450Z,0.75
2022-12-18T10:52:18.545Z,0.87
2022-12-18T10:54:54.217Z,1.16
2022-12-18T10:57:39.602Z,0.94
2022-12-18T11:00:28.432Z,0.43
2022-12-18T11:02:55.774Z,0.69
2022-12-18T11:05:26.829Z,0.60
2022-12-18T11:07:57.116Z,0.45
2022-12-18T11:10:31.564Z,0.16
2022-12-18T11:13:20.302Z,0.32
2022-12-18T11:15:47.416Z,0.18
2022-12-18T11:18:34.805Z,-0.05
2022-12-18T11:21:08.618Z,-0.11
2022-12-18T11:23:47.275Z,-0.01
2022-12-18T11:26:16.230Z,0.09
2022-12-18T11:28:50.540Z,0.01
2022-12-18T11:31:34.543Z,-0.19
2022-12-18T11:34:34.286Z,-0.19
2022-12-18T11:37:04.155Z,-0.14
2022-12-18T11:39:33.420Z,-0.21
2022-12-18T11:42:13.588Z,-0.16
2022-12-18T11:44:51.913Z,-0.23
2022-12-18T11:47:32.432Z,-0.12
2022-12-18T11:50:02.100Z,0.07
2022-12-18T11:52:39.813Z,-0.03
2022-12-18T11:55:16.621Z,-0.16
2022-12-18T11:58:00.329Z,-0.20
2022-12-18T12:00:27.064Z,0.01
2022-12-18T12:02:56.329Z,-0.04
2022-12-18T12:05:44.662Z,-0.02
2022-12-18T12:08:23.148Z,-0.03
2022-12-18T12:10:56.032Z,-0.08
2022-12-18T12:13:24.750Z,-0.21
2022-12-18T12:16:19.720Z,-0.25
2022-12-18T12:19:00.977Z,-0.32
2022-12-18T12:21:41.522Z,-0.34
2022-12-18T12:24:32.674Z,-0.43
2022-12-18T12:27:23.424Z,-0.41
2022-12-18T12:30:05.207Z,-0.40
2022-12-18T12:32:55.565Z,-0.49
2022-12-18T12:35:36.318Z,-0.47
2022-12-18T12:38:22.633Z,-0.59
2022-12-18T12:41:03.658Z,-0.55
2022-12-18T12:43:50.311Z,-0.59
2022-12-18T12:46:22.348Z,-0.62
2022-12-18T12:48:58.414Z,-0.75
2022-12-18T12:51:36.959Z,-0.75
2022-12-18T12:54:09.558Z,-0.74
2022-12-18T12:56:46.908Z,-0.81
2022-12-18T12:59:24.244Z,-0.76
2022-12-18T13:02:03.540Z,-0.65
2022-12-18T13:04:55.334Z,-0.69
2022-12-18T13:07:33.661Z,-0.70
2022-12-18T13:10:19.173Z,-0.68
2022-12-18T13:13:02.661Z,-0.68
2022-12-18T13:15:47.686Z,-0.74
2022-12-18T13:18:15.627Z,-0.68
2022-12-18T13:21:12.893Z,-0.82
2022-12-18T13:23:40.267Z,-0.84
2022-12-18T13:26:16.244Z,-0.84
2022-12-18T13:28:48.854Z,-0.98
2022-12-18T13:31:37.798Z,-0.90
2022-12-18T13:34:30.910Z,-1.01
2022-12-18T13:37:32.980Z,-0.82
2022-12-18T13:39:59.619Z,-0.92
2022-12-18T13:42:59.304Z,-0.90
2022-12-18T13:45:47.360Z,-0.98
2022-12-18T13:48:20.173Z,-0.99
2022-12-18T13:50:53.625Z,-0.99
2022-12-18T13:53:28.955Z,-1.09
2022-12-18T13:55:56.087Z,-1.18
2022-12-18T13:58:23.404Z,-1.18
2022-12-18T14:00:50.138Z,-1.18
2022-12-18T14:03:27.066Z,-1.28
2022-12-18T14:06:06.543Z,-1.25
2022-12-18T14:08:42.514Z,-1.29
2022-12-18T14:11:22.087Z,-1.26
2022-12-18T14:13:50.367Z,-1.29
2022-12-18T14:16:28.851Z,-1.28
2022-12-18T14:19:04.480Z,-1.19
2022-12-18T14:21:39.041Z,-1.24
2022-12-18T14:24:19.874Z,-1.24
2022-12-18T14:26:54.278Z,-1.22
2022-12-18T14:29:27.442Z,-1.22
2022-12-18T14:32:15.027Z,-1.25
2022-12-18T14:34:56.949Z,-1.26
2022-12-18T14:37:28.092Z,-1.31
2022-12-18T14:40:10.499Z,-1.37
2022-12-18T14:42:38.529Z,-1.33
2022-12-18T14:45:42.404Z,-1.40
2022-12-18T14:48:10.790Z,-1.44
2022-12-18T14:50:39.561Z,-1.51
2022-12-18T14:53:07.863Z,-1.54
2022-12-18T14:55:34.383Z,-1.57
2022-12-18T14:58:00.893Z,-1.60
2022-12-18T15:00:27.657Z,-1.62
2022-12-18T15:02:57.082Z,-1.64
2022-12-18T15:05:32.831Z,-1.67
2022-12-18T15:08:00.413Z,-1.70
2022-12-18T15:10:36.181Z,-1.74
2022-12-18T15:13:03.984Z,-1.74
2022-12-18T15:15:45.990Z,-1.74
2022-12-18T15:18:18.793Z,-1.75
2022-12-18T15:20:53.485Z,-1.77
2022-12-18T15:23:19.966Z,-1.77
2022-12-18T15:25:47.857Z,-1.78
2022-12-18T15:28:34.462Z,-1.81
2022-12-18T15:31:04.093Z,-1.80
2022-12-18T15:33:34.333Z,-1.81
2022-12-18T15:36:09.756Z,-1.81
2022-12-18T15:38:37.101Z,-1.83
2022-12-18T15:41:04.163Z,-1.83
2022-12-18T15:43:37.833Z,-1.84
2022-12-18T15:46:14.416Z,-1.85
2022-12-18T15:48:47.601Z,-1.85
2022-12-18T15:51:21.264Z,-1.86
2022-12-18T15:53:55.695Z,-1.85
2022-12-18T15:56:40.988Z,-1.86
2022-12-18T15:59:24.775Z,-1.87
2022-12-18T16:01:56.174Z,-1.88
2022-12-18T16:04:24.550Z,-1.90
2022-12-18T16:09:41.427Z,-1.88
2022-12-18T16:12:15.161Z,-1.90
2022-12-18T16:14:41.750Z,-1.90
2022-12-18T16:17:12.461Z,-1.91
2022-12-18T16:19:39.302Z,-1.92
2022-12-18T16:22:06.576Z,-1.92
2022-12-18T16:24:34.682Z,-1.93
2022-12-18T16:27:03.486Z,-1.93
2022-12-18T16:29:30.401Z,-1.92
2022-12-18T16:32:01.221Z,-1.93
2022-12-18T16:34:36.155Z,-1.95
2022-12-18T16:37:08.005Z,-1.96
2022-12-18T16:39:35.635Z,-1.95
2022-12-18T16:42:21.202Z,-1.96
2022-12-18T16:44:49.634Z,-1.98
2022-12-18T16:47:17.051Z,-1.97
2022-12-18T16:49:47.645Z,-1.99
2022-12-18T16:52:15.702Z,-1.99
2022-12-18T16:54:42.753Z,-2.01
2022-12-18T16:57:13.607Z,-2.01
2022-12-18T16:59:40.218Z,-2.00
2022-12-18T17:02:13.358Z,-2.02
2022-12-18T17:04:41.726Z,-2.01
2022-12-18T17:07:08.810Z,-2.03
2022-12-18T17:09:35.826Z,-2.04
2022-12-18T17:12:04.805Z,-2.02
2022-12-18T17:14:33.404Z,-2.03
2022-12-18T17:17:20.982Z,-2.03
2022-12-18T17:19:47.459Z,-2.03
2022-12-18T17:22:14.431Z,-2.04
2022-12-18T17:24:40.957Z,-2.02
2022-12-18T17:27:10.660Z,-2.04
2022-12-18T17:29:39.132Z,-2.05
2022-12-18T17:32:10.589Z,-2.05
2022-12-18T17:34:42.486Z,-2.05
2022-12-18T17:37:09.140Z,-2.06
2022-12-18T17:39:35.718Z,-2.06
2022-12-18T17:42:02.387Z,-2.08
2022-12-18T17:44:30.673Z,-2.08
2022-12-18T17:46:57.188Z,-2.08
2022-12-18T17:49:23.935Z,-2.10
2022-12-18T17:51:51.473Z,-2.09
2022-12-18T17:54:18.076Z,-2.10
2022-12-18T17:56:53.127Z,-2.11
2022-12-18T17:59:19.648Z,-2.13
2022-12-18T18:01:46.476Z,-2.13
2022-12-18T18:04:15.535Z,-2.14
2022-12-18T18:06:42.133Z,-2.15
2022-12-18T18:09:15.160Z,-2.16
2022-12-18T18:12:01.910Z,-2.17
2022-12-18T18:14:31.361Z,-2.18
2022-12-18T18:16:59.174Z,-2.21
2022-12-18T18:19:33.334Z,-2.21
2022-12-18T18:22:03.766Z,-2.21
2022-12-18T18:24:30.922Z,-2.21
2022-12-18T18:26:59.708Z,-2.22
2022-12-18T18:29:27.895Z,-2.23
2022-12-18T18:31:55.740Z,-2.24
2022-12-18T18:34:27.606Z,-2.23
2022-12-18T18:36:54.226Z,-2.25
2022-12-18T18:39:21.072Z,-2.25
2022-12-18T18:41:50.309Z,-2.25
2022-12-18T18:44:18.549Z,-2.25
2022-12-18T18:46:45.367Z,-2.25
2022-12-18T18:49:15.421Z,-2.25
2022-12-18T18:51:42.378Z,-2.28
2022-12-18T18:54:09.669Z,-2.26
2022-12-18T18:59:30.911Z,-2.26
2022-12-18T19:02:05.227Z,-2.25
2022-12-18T19:04:33.789Z,-2.25
2022-12-18T19:07:00.512Z,-2.26
2022-12-18T19:09:27.664Z,-2.26
2022-12-18T19:12:13.498Z,-2.26
2022-12-18T19:14:40.101Z,-2.26
2022-12-18T19:17:06.620Z,-2.25
2022-12-18T19:19:33.441Z,-2.26
2022-12-18T19:22:00.112Z,-2.23
2022-12-18T19:24:27.093Z,-2.25
2022-12-18T19:26:55.356Z,-2.26
2022-12-18T19:29:25.120Z,-2.25
2022-12-18T19:31:51.867Z,-2.26
2022-12-18T19:34:21.942Z,-2.26
2022-12-18T19:36:52.101Z,-2.25
2022-12-18T19:39:23.110Z,-2.26
2022-12-18T19:41:49.610Z,-2.25
2022-12-18T19:44:19.398Z,-2.26
2022-12-18T19:46:51.974Z,-2.26
2022-12-18T19:49:18.507Z,-2.26
2022-12-18T19:51:50.520Z,-2.26
2022-12-18T19:54:17.899Z,-2.27
2022-12-18T19:56:45.674Z,-2.26
2022-12-18T19:59:17.562Z,-2.30
2022-12-18T20:01:44.222Z,-2.30
2022-12-18T20:04:11.029Z,-2.31
2022-12-18T20:06:53.822Z,-2.29
2022-12-18T20:09:21.230Z,-2.29
2022-12-18T20:11:48.769Z,-2.30
2022-12-18T20:14:22.654Z,-2.30
2022-12-18T20:16:54.468Z,-2.30
2022-12-18T20:19:23.642Z,-2.28
2022-12-18T20:21:54.004Z,-2.26
2022-12-18T20:24:20.570Z,-2.26
2022-12-18T20:26:49.359Z,-2.27
2022-12-18T20:29:17.761Z,-2.28
2022-12-18T20:31:44.354Z,-2.29
2022-12-18T20:34:12.693Z,-2.30
2022-12-18T20:36:39.808Z,-2.30
2022-12-18T20:39:08.919Z,-2.30
2022-12-18T20:41:43.950Z,-2.30
2022-12-18T20:44:22.774Z,-2.25
2022-12-18T20:47:01.171Z,-2.30
2022-12-18T20:49:34.180Z,-2.30
2022-12-18T20:52:02.929Z,-2.30
2022-12-18T20:54:29.397Z,-2.29
2022-12-18T20:56:56.703Z,-2.26
2022-12-18T20:59:27.230Z,-2.26
2022-12-18T21:01:58.332Z,-2.26
2022-12-18T21:04:25.264Z,-2.25
2022-12-18T21:06:59.274Z,-2.23
2022-12-18T21:09:30.695Z,-2.23
2022-12-18T21:12:32.501Z,-2.23
2022-12-18T21:15:09.621Z,-2.22
2022-12-18T21:17:40.114Z,-2.23
2022-12-18T21:20:11.891Z,-2.20
2022-12-18T21:22:51.315Z,-2.19
2022-12-18T21:25:20.499Z,-2.17
2022-12-18T21:27:49.118Z,-2.17
2022-12-18T21:30:17.551Z,-2.18
2022-12-18T21:32:44.155Z,-2.16
2022-12-18T21:35:10.896Z,-2.17
2022-12-18T21:37:39.284Z,-2.17
2022-12-18T21:40:07.053Z,-2.17
2022-12-18T21:42:52.412Z,-2.16
2022-12-18T21:45:18.893Z,-2.17
2022-12-18T21:47:45.419Z,-2.18
2022-12-18T21:50:18.508Z,-2.18
2022-12-18T21:52:45.004Z,-2.15
2022-12-18T21:55:11.516Z,-2.13
2022-12-18T21:57:41.461Z,-2.11
2022-12-18T22:00:18.403Z,-2.12
2022-12-18T22:02:49.598Z,-2.11
2022-12-18T22:05:34.623Z,-2.09
2022-12-18T22:08:01.729Z,-2.08
2022-12-18T22:10:28.608Z,-2.05
2022-12-18T22:12:55.215Z,-2.03
2022-12-18T22:15:23.557Z,-2.02
2022-12-18T22:17:50.901Z,-2.01
2022-12-18T22:20:18.387Z,-2.02
2022-12-18T22:22:47.386Z,-2.02
2022-12-18T22:25:14.118Z,-2.03
2022-12-18T22:27:40.583Z,-2.00
2022-12-18T22:30:10.550Z,-1.97
2022-12-18T22:32:37.008Z,-1.96
2022-12-18T22:35:09.506Z,-1.94
2022-12-18T22:37:41.119Z,-1.94
2022-12-18T22:40:10.490Z,-1.93
2022-12-18T22:42:39.698Z,-1.87
2022-12-18T22:45:06.787Z,-1.85
2022-12-18T22:47:33.288Z,-1.84
2022-12-18T22:49:59.781Z,-1.81
2022-12-18T22:52:30.745Z,-1.80
2022-12-18T22:54:57.228Z,-1.79
2022-12-18T22:57:24.357Z,-1.81
2022-12-18T22:59:51.652Z,-1.82
2022-12-18T23:02:19.169Z,-1.80
2022-12-18T23:04:46.237Z,-1.79
2022-12-18T23:07:14.689Z,-1.76
2022-12-18T23:09:41.290Z,-1.76
2022-12-18T23:12:08.028Z,-1.75
2022-12-18T23:14:41.150Z,-1.74
2022-12-18T23:17:07.606Z,-1.73
2022-12-18T23:19:37.510Z,-1.72
2022-12-18T23:22:08.591Z,-1.73
2022-12-18T23:24:38.373Z,-1.73
2022-12-18T23:27:04.944Z,-1.72
2022-12-18T23:29:37.341Z,-1.71
2022-12-18T23:32:03.972Z,-1.70
2022-12-18T23:34:30.494Z,-1.69
2022-12-18T23:37:05.413Z,-1.65
2022-12-18T23:39:31.878Z,-1.66
2022-12-18T23:41:58.861Z,-1.65
2022-12-18T23:44:25.956Z,-1.63
2022-12-18T23:46:55.297Z,-1.63
2022-12-18T23:49:21.966Z,-1.64
2022-12-18T23:51:49.208Z,-1.64
2022-12-18T23:54:15.760Z,-1.65
2022-12-18T23:56:42.523Z,-1.64
2022-12-18T23:59:11.364Z,-1.66
